Portada
METAR-TAF:

METAR-TAF

Aeroports :

Luang Namtha, Laos

latitud: 20-57-38N, longitud: 101-24-09E, altitud: 600 m

Observació

L'informe es va fer fa 38 minuts, a les 02:00 UTC
Vent 2 kt del Nord-Est
Temperatura 21°C
Humitat 94%
Pressió 1019 hPa
Visibilitat: 2000 m
Cel ennuvolat a una alçada de 1000 ft
Cel cobert a una alçada de 9000 ft

METAR: VLLN 120200Z 04002KT 2000 BKN010 OVC090 21/20 Q1019 NOSIG

Hora: 08:08 (02:38 UTC)

Pronòstic

L'informe es va fer fa 3 hores i 38 minuts, a les 23:00 UTC
Pronòstic vàlid del 12 a les 00 UTC al 12 a les 24 UTC
Vent 4 kt del Nord
Visibilitat: 8000 m
Núvols disperses a una alçada de 2000 ft
Cel ennuvolat a una alçada de 10000 ft
Temporalment
l' 12 a les 00 UTC al 12 a les 03 UTC
Visibilitat: 3000 m
Cel ennuvolat a una alçada de 1000 ft
Cel cobert a una alçada de 9000 ft
boirina

TAF: VLLN 112300Z 1200/1224 36004KT 8000 SCT020 BKN100 TEMPO 1200/1203 3000 BR BKN010 OVC090

Observacions i pronòstics meteorològics de més de 4000 aeroports (METAR i TAF).

Les estacions disponibles són els punts grocs i vermells al mapa.

Posi el ratolí al punt desitjat per veure el nom de l'estació.

Feu clic per veure les observacions i els pronòstics meteorològics.

Per canviar el mapa: feu clic els botons verds amb una creu de color negre per apropar; al botó verd amb un guió per allunyar la imatge; o en les fletxes verdes per a mapes adjacents.


METAR-TAF: